Time;durP1;ratioP1;P1;durP2;ratioP2;P2;SDS_P1;SDS_P2;PMS_P1;PMS_P2;Temp;Humidity;BMP_temperature;BMP_pressure;BME280_temperature;BME280_humidity;BME280_pressure;Samples;Min_cycle;Max_cycle;Signal;HPM_P1;HPM_P2
2022/08/27 00:01:56;;;;;;;2.40;1.57;;;27.50;71.80;;;;;;5042467;28;86321;-52
2022/08/27 00:04:24;;;;;;;3.13;1.47;;;27.40;71.60;;;;;;5041814;28;89005;-52
2022/08/27 00:06:53;;;;;;;2.27;1.90;;;27.40;71.40;;;;;;5040869;28;89001;-52
2022/08/27 00:09:22;;;;;;;1.30;1.13;;;27.50;71.30;;;;;;5041207;28;87885;-52
2022/08/27 00:11:54;;;;;;;4.13;1.60;;;27.50;71.30;;;;;;5040420;27;87062;-53
2022/08/27 00:14:25;;;;;;;3.40;1.60;;;27.50;71.30;;;;;;5040698;28;89156;-52
2022/08/27 00:16:53;;;;;;;1.47;1.00;;;27.40;70.90;;;;;;5042311;28;90383;-52
2022/08/27 00:19:21;;;;;;;1.90;1.53;;;27.50;71.40;;;;;;5042878;28;88128;-52
2022/08/27 00:21:49;;;;;;;2.63;1.40;;;27.50;71.30;;;;;;5040112;28;87391;-52
2022/08/27 00:24:18;;;;;;;3.30;1.30;;;27.40;71.20;;;;;;5040999;27;88278;-52
2022/08/27 00:26:46;;;;;;;1.93;1.53;;;27.40;71.10;;;;;;5023904;28;89915;-52
2022/08/27 00:29:14;;;;;;;3.97;1.40;;;27.50;71.20;;;;;;5042263;28;87100;-51
2022/08/27 00:31:43;;;;;;;2.00;1.10;;;27.40;71.20;;;;;;5040909;28;87123;-52
2022/08/27 00:34:18;;;;;;;1.60;1.27;;;27.40;71.10;;;;;;5041500;28;90166;-51
2022/08/27 00:36:46;;;;;;;1.67;1.50;;;27.40;71.10;;;;;;5041922;28;89735;-52
2022/08/27 00:39:14;;;;;;;1.63;0.80;;;27.40;71.10;;;;;;5041676;28;87036;-52
2022/08/27 00:41:43;;;;;;;3.07;0.80;;;27.40;71.10;;;;;;5040222;28;88729;-52
2022/08/27 00:44:11;;;;;;;1.13;1.03;;;27.50;71.20;;;;;;5041542;28;89074;-52
2022/08/27 00:46:41;;;;;;;1.80;0.90;;;27.40;71.10;;;;;;5041163;28;88897;-52
2022/08/27 00:49:13;;;;;;;2.10;0.90;;;27.40;70.90;;;;;;5041168;28;87157;-51
2022/08/27 00:51:41;;;;;;;1.03;0.90;;;27.40;70.90;;;;;;5041635;28;86494;-52
2022/08/27 00:54:09;;;;;;;1.50;0.93;;;27.40;71.10;;;;;;5041228;28;89198;-52
2022/08/27 00:56:44;;;;;;;2.83;1.10;;;27.40;71.20;;;;;;5041083;28;87682;-51
2022/08/27 00:59:18;;;;;;;1.63;1.00;;;27.40;70.90;;;;;;5029747;28;88586;-50
2022/08/27 01:04:37;;;;;;;0.73;0.60;;;27.40;70.90;;;;;;5039921;28;89204;-50
2022/08/27 01:07:05;;;;;;;3.07;1.20;;;27.40;71.10;;;;;;5040113;28;88885;-52
2022/08/27 01:09:33;;;;;;;1.03;0.80;;;27.40;71.10;;;;;;5041080;28;86963;-50
2022/08/27 01:12:01;;;;;;;2.77;1.03;;;27.40;71.20;;;;;;5039935;28;87062;-50
2022/08/27 01:14:29;;;;;;;1.93;1.37;;;27.40;71.10;;;;;;5041027;28;89172;-50
2022/08/27 01:16:58;;;;;;;1.93;1.57;;;27.40;71.90;;;;;;5040569;28;88865;-50
2022/08/27 01:19:29;;;;;;;1.90;1.50;;;27.40;71.10;;;;;;5041682;28;87071;-50
2022/08/27 01:22:03;;;;;;;1.60;1.50;;;27.40;70.90;;;;;;5039263;28;87114;-50
2022/08/27 01:24:34;;;;;;;1.67;1.50;;;27.40;70.90;;;;;;5040997;28;90037;-50
2022/08/27 01:27:03;;;;;;;2.43;1.60;;;27.40;70.80;;;;;;5040496;28;89860;-50
2022/08/27 01:29:34;;;;;;;2.10;1.70;;;27.40;70.80;;;;;;5040377;28;87058;-50
2022/08/27 01:32:06;;;;;;;3.30;1.87;;;27.30;71.00;;;;;;5039570;28;87158;-50
2022/08/27 01:34:34;;;;;;;2.80;2.00;;;27.30;70.80;;;;;;5040187;27;89241;-50
2022/08/27 01:37:04;;;;;;;2.77;2.23;;;27.40;71.00;;;;;;5039802;28;89115;-50
2022/08/27 01:39:34;;;;;;;3.97;2.33;;;27.30;71.00;;;;;;5040581;28;87097;-50
2022/08/27 01:42:07;;;;;;;4.63;2.03;;;27.40;71.10;;;;;;5038779;28;87008;-50
2022/08/27 01:44:46;;;;;;;4.07;2.43;;;27.40;70.70;;;;;;5040486;28;89118;-50
2022/08/27 01:47:14;;;;;;;2.67;2.47;;;27.30;70.80;;;;;;5040268;28;87696;-51
2022/08/27 01:49:42;;;;;;;3.67;2.43;;;27.30;71.90;;;;;;5040548;28;87993;-50
2022/08/27 01:52:11;;;;;;;3.43;2.57;;;27.40;71.00;;;;;;5040877;28;87049;-52
2022/08/27 01:54:40;;;;;;;4.83;3.00;;;27.40;71.10;;;;;;5039258;28;87999;-52
2022/08/27 01:57:08;;;;;;;5.90;2.53;;;27.40;71.00;;;;;;5040557;28;88936;-52
2022/08/27 01:59:36;;;;;;;2.97;2.20;;;27.30;70.90;;;;;;5040899;28;87118;-50
2022/08/27 02:02:06;;;;;;;5.07;2.57;;;27.40;70.90;;;;;;5040535;28;86922;-53
2022/08/27 02:04:35;;;;;;;4.77;2.50;;;27.40;71.00;;;;;;5040373;28;89183;-51
2022/08/27 02:07:03;;;;;;;2.50;2.30;;;27.50;71.10;;;;;;5039844;28;88964;-50
2022/08/27 02:09:32;;;;;;;3.77;2.67;;;27.30;70.80;;;;;;5040550;28;87390;-50
2022/08/27 02:12:01;;;;;;;2.30;1.90;;;27.30;71.90;;;;;;5040381;28;87057;-50
2022/08/27 02:14:29;;;;;;;4.10;2.40;;;27.30;71.00;;;;;;5038966;28;90131;-50
2022/08/27 02:16:57;;;;;;;3.57;2.70;;;27.30;70.90;;;;;;5040466;28;89455;-51
2022/08/27 02:19:26;;;;;;;3.50;2.40;;;27.30;70.90;;;;;;5040179;28;87166;-50
2022/08/27 02:21:58;;;;;;;3.67;3.10;;;27.30;70.90;;;;;;5038772;28;87060;-50
2022/08/27 02:24:27;;;;;;;4.07;2.47;;;27.30;70.90;;;;;;5038899;28;89260;-50
2022/08/27 02:26:55;;;;;;;3.83;2.13;;;27.30;70.80;;;;;;5039945;28;88998;-50
2022/08/27 02:29:27;;;;;;;3.40;2.70;;;27.30;70.90;;;;;;5041006;28;87660;-50
2022/08/27 02:31:55;;;;;;;3.00;2.43;;;27.30;70.90;;;;;;5040674;28;86233;-51
2022/08/27 02:34:23;;;;;;;3.83;2.20;;;27.30;70.90;;;;;;5040036;28;89040;-50
2022/08/27 02:36:53;;;;;;;3.73;2.63;;;27.30;70.90;;;;;;5039631;28;88811;-50
2022/08/27 02:39:21;;;;;;;4.60;2.50;;;27.30;70.50;;;;;;5039576;28;87946;-50
2022/08/27 02:41:49;;;;;;;3.50;2.20;;;27.30;70.80;;;;;;5039028;28;87090;-50
2022/08/27 02:44:17;;;;;;;4.47;2.10;;;27.30;70.90;;;;;;5038148;28;89152;-50
2022/08/27 02:46:47;;;;;;;3.60;2.73;;;27.30;71.80;;;;;;5038940;28;88861;-50
2022/08/27 02:49:18;;;;;;;3.70;2.50;;;27.30;70.90;;;;;;5026800;28;87147;-50
2022/08/27 02:51:46;;;;;;;2.83;2.33;;;27.30;71.00;;;;;;5024564;28;87017;-50
2022/08/27 02:54:16;;;;;;;3.57;1.93;;;27.30;70.90;;;;;;5023525;28;89389;-50
2022/08/27 02:56:44;;;;;;;4.77;2.20;;;27.30;71.00;;;;;;5033284;28;88977;-50
2022/08/27 02:59:13;;;;;;;3.87;2.17;;;27.30;71.10;;;;;;5037948;28;87142;-50
2022/08/27 03:01:41;;;;;;;2.23;1.93;;;27.30;71.00;;;;;;5022462;28;87924;-50
2022/08/27 03:04:11;;;;;;;2.83;1.67;;;27.30;71.10;;;;;;5022411;28;90289;-50
2022/08/27 03:06:40;;;;;;;2.67;1.93;;;27.30;71.00;;;;;;5024975;28;89872;-50
2022/08/27 03:09:09;;;;;;;2.17;1.80;;;27.30;71.90;;;;;;5043211;28;87027;-50
2022/08/27 03:11:38;;;;;;;3.03;1.33;;;27.30;71.00;;;;;;5043603;28;87248;-50
2022/08/27 03:14:06;;;;;;;2.60;1.60;;;27.30;70.90;;;;;;5041357;28;89213;-50
2022/08/27 03:16:34;;;;;;;1.93;1.53;;;27.30;71.00;;;;;;5036690;28;87531;-50
2022/08/27 03:19:01;;;;;;;2.80;1.47;;;27.30;70.90;;;;;;5043659;28;86968;-51
2022/08/27 03:21:31;;;;;;;2.93;1.23;;;27.30;70.90;;;;;;5043232;28;86294;-50
2022/08/27 03:24:00;;;;;;;1.63;1.47;;;27.30;70.90;;;;;;5043688;27;87951;-50
2022/08/27 03:26:41;;;;;;;3.33;1.67;;;27.30;70.90;;;;;;5031619;28;88854;-50
2022/08/27 03:29:19;;;;;;;1.57;1.30;;;27.30;70.90;;;;;;5023760;28;87997;-51
2022/08/27 03:31:47;;;;;;;2.33;1.60;;;27.30;70.80;;;;;;5043256;28;87167;-51
2022/08/27 03:34:15;;;;;;;3.10;1.30;;;27.30;71.60;;;;;;5042650;27;89197;-51
2022/08/27 03:36:50;;;;;;;0.80;0.80;;;27.30;71.70;;;;;;5025008;28;89272;-51
2022/08/27 03:39:18;;;;;;;2.40;1.27;;;27.30;70.60;;;;;;5023335;28;87059;-51
2022/08/27 03:41:46;;;;;;;1.83;1.37;;;27.30;70.90;;;;;;5025106;28;87108;-51
2022/08/27 03:44:21;;;;;;;1.80;1.20;;;27.30;70.90;;;;;;5042553;28;89424;-51
2022/08/27 03:46:50;;;;;;;1.60;1.50;;;27.20;70.70;;;;;;5043539;28;89112;-51
2022/08/27 03:49:18;;;;;;;1.77;1.03;;;27.30;70.90;;;;;;5042853;28;87036;-51
2022/08/27 03:51:49;;;;;;;2.10;1.00;;;27.30;70.90;;;;;;5042737;28;87088;-51
2022/08/27 03:54:17;;;;;;;1.07;0.60;;;27.20;70.90;;;;;;5041921;28;90111;-51
2022/08/27 03:56:45;;;;;;;1.50;1.13;;;27.20;70.70;;;;;;5042938;28;89869;-50
2022/08/27 03:59:15;;;;;;;1.63;0.97;;;27.20;70.80;;;;;;5041354;27;87060;-50
2022/08/27 04:01:43;;;;;;;1.73;1.30;;;27.20;70.50;;;;;;5041906;28;87142;-50
2022/08/27 04:04:11;;;;;;;1.97;1.17;;;27.20;70.80;;;;;;5042409;28;87144;-50
2022/08/27 04:06:40;;;;;;;0.70;0.70;;;27.20;70.50;;;;;;5041819;28;88966;-50
2022/08/27 04:09:09;;;;;;;1.80;0.93;;;27.20;70.70;;;;;;5042499;28;87933;-50
2022/08/27 04:11:37;;;;;;;1.80;1.07;;;27.20;70.60;;;;;;5041834;28;86358;-50
2022/08/27 04:14:05;;;;;;;1.37;0.80;;;27.20;70.70;;;;;;5042491;28;89083;-50
2022/08/27 04:16:54;;;;;;;1.33;1.20;;;27.20;71.40;;;;;;5042065;28;90019;-50
2022/08/27 04:19:23;;;;;;;1.07;0.73;;;27.20;70.50;;;;;;5041898;28;88063;-51
2022/08/27 04:21:54;;;;;;;1.10;0.93;;;27.10;70.70;;;;;;5031501;28;87018;-50
2022/08/27 04:24:24;;;;;;;3.07;1.10;;;27.20;70.60;;;;;;5042031;27;89240;-51
2022/08/27 04:26:52;;;;;;;0.83;0.70;;;27.20;70.60;;;;;;5042339;28;88788;-51
2022/08/27 04:29:20;;;;;;;2.93;0.93;;;27.20;70.60;;;;;;5041898;28;87068;-51
2022/08/27 04:31:48;;;;;;;0.90;0.90;;;27.20;70.70;;;;;;5029071;28;87135;-51
2022/08/27 04:34:16;;;;;;;1.63;0.90;;;27.20;70.70;;;;;;5040742;28;89299;-50
2022/08/27 04:36:44;;;;;;;1.23;0.90;;;27.20;70.60;;;;;;5042183;28;87180;-50
2022/08/27 04:39:12;;;;;;;2.30;0.80;;;27.20;70.60;;;;;;5042452;28;87225;-50
2022/08/27 04:41:42;;;;;;;1.73;1.13;;;27.20;70.50;;;;;;5040940;28;87389;-50
2022/08/27 04:44:11;;;;;;;1.00;0.70;;;27.20;70.70;;;;;;5041709;28;89048;-50
2022/08/27 04:46:40;;;;;;;5.60;1.17;;;27.20;70.70;;;;;;5027094;28;90157;-50
2022/08/27 04:49:15;;;;;;;1.03;0.87;;;27.10;70.40;;;;;;5042122;28;87088;-52
2022/08/27 04:51:43;;;;;;;1.00;0.80;;;27.20;70.50;;;;;;5021906;28;88450;-51
2022/08/27 04:54:12;;;;;;;2.13;0.90;;;27.10;70.70;;;;;;5021627;28;89204;-50
2022/08/27 04:56:42;;;;;;;1.57;1.33;;;27.10;70.50;;;;;;5040580;27;88628;-50
2022/08/27 04:59:10;;;;;;;3.20;1.47;;;27.10;70.30;;;;;;5041849;28;87086;-50
2022/08/27 05:01:38;;;;;;;3.47;2.40;;;27.20;70.70;;;;;;5026543;28;86343;-50
2022/08/27 05:04:07;;;;;;;4.43;2.23;;;27.10;70.30;;;;;;5021493;28;89248;-50
2022/08/27 05:06:36;;;;;;;2.57;2.23;;;27.10;70.50;;;;;;5038118;28;88951;-50
2022/08/27 05:09:04;;;;;;;4.90;3.07;;;27.10;70.40;;;;;;5041298;28;88041;-50
2022/08/27 05:11:33;;;;;;;4.47;3.33;;;27.10;70.50;;;;;;5023981;28;87386;-51
2022/08/27 05:14:03;;;;;;;4.97;3.37;;;27.10;70.50;;;;;;5000249;28;89227;-50
2022/08/27 05:16:32;;;;;;;4.67;3.93;;;27.10;71.20;;;;;;5017907;28;88608;-50
2022/08/27 05:19:00;;;;;;;5.43;3.77;;;27.20;70.50;;;;;;5021867;28;87089;-50
2022/08/27 05:21:30;;;;;;;5.57;3.77;;;27.20;70.40;;;;;;5038405;28;86983;-50
2022/08/27 05:23:59;;;;;;;7.33;4.43;;;27.20;70.20;;;;;;5041446;28;89179;-52
2022/08/27 05:26:30;;;;;;;6.37;4.13;;;27.20;70.10;;;;;;5026915;28;90076;-52
2022/08/27 05:28:58;;;;;;;6.50;4.77;;;27.20;70.30;;;;;;5021538;28;87337;-52
2022/08/27 05:31:28;;;;;;;6.83;4.40;;;27.20;70.10;;;;;;5022144;28;87220;-52
2022/08/27 05:33:57;;;;;;;5.93;5.00;;;27.20;70.20;;;;;;5020182;28;90106;-52
2022/08/27 05:36:28;;;;;;;5.53;4.57;;;27.30;70.30;;;;;;5021534;28;88312;-52
2022/08/27 05:38:56;;;;;;;6.07;4.10;;;27.30;70.00;;;;;;5021057;28;87000;-52
2022/08/27 05:41:26;;;;;;;5.87;4.03;;;27.30;69.80;;;;;;5036854;28;87261;-50
2022/08/27 05:44:02;;;;;;;5.80;3.73;;;27.40;69.90;;;;;;5041035;27;89243;-50
2022/08/27 05:46:52;;;;;;;6.03;3.80;;;27.30;69.80;;;;;;5032607;28;90036;-50
2022/08/27 05:49:20;;;;;;;7.93;3.50;;;27.30;70.00;;;;;;5020447;28;87085;-52
2022/08/27 05:51:48;;;;;;;4.50;3.87;;;27.30;70.90;;;;;;5022485;28;86428;-50
2022/08/27 05:54:18;;;;;;;7.23;4.00;;;27.30;70.10;;;;;;5021071;28;89055;-52
2022/08/27 05:56:48;;;;;;;5.50;3.50;;;27.20;69.90;;;;;;5021480;28;88777;-52
2022/08/27 06:02:04;;;;;;;3.83;3.10;;;27.20;69.90;;;;;;5000583;28;86990;-51
2022/08/27 06:04:32;;;;;;;3.90;3.17;;;27.20;70.20;;;;;;5000641;28;89216;-50
2022/08/27 06:07:00;;;;;;;6.53;4.20;;;27.20;70.20;;;;;;5039799;28;88920;-50
2022/08/27 06:09:28;;;;;;;6.13;3.97;;;27.20;70.30;;;;;;5041059;28;88249;-50
2022/08/27 06:11:57;;;;;;;3.73;3.03;;;27.20;70.30;;;;;;5021865;28;87222;-51
2022/08/27 06:14:26;;;;;;;5.23;3.40;;;27.20;70.20;;;;;;5021175;28;89248;-50
2022/08/27 06:16:54;;;;;;;3.30;2.80;;;27.10;70.30;;;;;;5038687;28;87680;-50
2022/08/27 06:19:24;;;;;;;5.43;2.73;;;27.10;70.40;;;;;;5040774;28;88161;-50
2022/08/27 06:21:52;;;;;;;3.40;3.00;;;27.10;70.50;;;;;;5024298;28;87144;-49
2022/08/27 06:24:37;;;;;;;3.57;3.20;;;27.20;70.70;;;;;;5034155;28;88981;-49
2022/08/27 06:27:08;;;;;;;4.23;3.20;;;27.20;70.60;;;;;;5040172;28;89805;-51
2022/08/27 06:29:36;;;;;;;4.60;2.50;;;27.20;71.50;;;;;;5026325;28;87112;-49
2022/08/27 06:32:04;;;;;;;5.27;3.10;;;27.10;70.60;;;;;;5038057;28;87027;-50
2022/08/27 06:34:34;;;;;;;3.70;2.30;;;27.10;70.60;;;;;;5033313;28;89322;-51
2022/08/27 06:37:02;;;;;;;3.40;2.37;;;27.10;70.70;;;;;;5019978;28;88879;-49
2022/08/27 06:39:30;;;;;;;3.00;2.10;;;27.10;70.70;;;;;;5019926;28;87033;-49
2022/08/27 06:41:58;;;;;;;3.93;2.73;;;27.10;70.80;;;;;;5027948;28;86287;-49
2022/08/27 06:44:28;;;;;;;5.97;2.73;;;27.20;71.80;;;;;;5033533;28;88788;-49
2022/08/27 06:46:56;;;;;;;3.33;2.43;;;27.20;70.90;;;;;;5023716;28;88850;-50
2022/08/27 06:49:24;;;;;;;3.33;2.20;;;27.20;70.90;;;;;;5001958;28;88023;-51
2022/08/27 06:51:53;;;;;;;4.67;2.50;;;27.20;70.90;;;;;;5021987;28;86980;-49
2022/08/27 06:54:21;;;;;;;2.63;2.10;;;27.20;71.00;;;;;;5036048;28;89146;-50
2022/08/27 06:56:49;;;;;;;3.63;2.13;;;27.20;71.00;;;;;;5011282;28;88912;-49
2022/08/27 06:59:18;;;;;;;3.53;2.20;;;27.20;71.00;;;;;;5019740;28;87510;-50
2022/08/27 07:01:47;;;;;;;2.07;1.80;;;27.20;71.00;;;;;;5033966;28;87155;-51
2022/08/27 07:04:18;;;;;;;2.40;1.57;;;27.30;70.90;;;;;;5019994;28;88769;-51
2022/08/27 07:06:46;;;;;;;1.30;1.20;;;27.20;70.80;;;;;;5026582;28;88840;-51
2022/08/27 07:09:15;;;;;;;1.97;1.03;;;27.30;70.90;;;;;;5038317;28;87151;-51
2022/08/27 07:11:44;;;;;;;1.10;1.00;;;27.20;70.70;;;;;;5022285;28;87337;-51
2022/08/27 07:14:12;;;;;;;1.53;0.93;;;27.20;71.60;;;;;;5021744;28;90099;-51
2022/08/27 07:16:40;;;;;;;2.53;1.10;;;27.20;70.70;;;;;;5031276;28;88718;-51
2022/08/27 07:19:08;;;;;;;0.70;0.70;;;27.20;70.50;;;;;;5015451;28;87166;-51
2022/08/27 07:21:38;;;;;;;1.67;0.90;;;27.10;70.50;;;;;;5020357;28;87136;-51
2022/08/27 07:24:07;;;;;;;1.73;1.03;;;27.10;70.30;;;;;;5025637;28;89103;-51
2022/08/27 07:26:38;;;;;;;1.73;0.90;;;27.10;70.40;;;;;;5039391;28;88789;-51
2022/08/27 07:29:07;;;;;;;1.67;1.20;;;27.20;70.20;;;;;;5027577;28;87132;-51
2022/08/27 07:31:35;;;;;;;3.60;0.87;;;27.10;70.00;;;;;;5033334;28;86398;-51
2022/08/27 07:34:04;;;;;;;4.40;0.97;;;27.10;70.30;;;;;;5041980;27;87589;-51
2022/08/27 07:36:32;;;;;;;1.17;0.50;;;27.10;70.20;;;;;;5028912;28;88913;-51
2022/08/27 07:39:00;;;;;;;1.13;0.80;;;27.10;70.10;;;;;;5031327;27;88029;-51
2022/08/27 07:41:29;;;;;;;0.90;0.60;;;27.20;70.20;;;;;;5033415;28;87086;-51
2022/08/27 07:46:46;;;;;;;1.37;0.90;;;27.10;70.00;;;;;;5029523;28;88923;-51
2022/08/27 07:49:16;;;;;;;0.90;0.90;;;27.10;70.10;;;;;;5042258;28;87059;-51
2022/08/27 07:51:44;;;;;;;1.00;0.80;;;27.20;70.20;;;;;;5039722;27;87000;-51
2022/08/27 07:54:12;;;;;;;1.00;0.90;;;27.20;70.20;;;;;;5042677;28;89300;-51
2022/08/27 07:56:40;;;;;;;1.60;1.00;;;27.20;70.00;;;;;;5031835;28;89001;-51
2022/08/27 07:59:10;;;;;;;1.70;1.00;;;27.20;70.10;;;;;;5025900;27;87178;-51
2022/08/27 08:01:41;;;;;;;1.37;0.90;;;27.20;70.00;;;;;;5030023;28;87304;-53
2022/08/27 08:04:09;;;;;;;1.37;0.97;;;27.20;70.10;;;;;;5021220;28;90220;-51
2022/08/27 08:06:41;;;;;;;1.03;0.80;;;27.20;69.90;;;;;;5028475;28;89769;-51
2022/08/27 08:09:09;;;;;;;1.30;1.20;;;27.20;70.00;;;;;;5042115;28;87100;-50
2022/08/27 08:11:38;;;;;;;1.53;1.13;;;27.20;70.00;;;;;;5039666;28;89097;-51
2022/08/27 08:14:06;;;;;;;1.27;1.07;;;27.30;70.10;;;;;;5041582;28;89301;-51
2022/08/27 08:16:36;;;;;;;2.23;1.30;;;27.30;70.10;;;;;;5032086;28;89257;-53
2022/08/27 08:19:04;;;;;;;2.03;1.60;;;27.30;70.20;;;;;;5041638;28;87091;-53
2022/08/27 08:21:32;;;;;;;2.50;1.77;;;27.30;70.20;;;;;;5034561;28;86424;-53
2022/08/27 08:24:01;;;;;;;2.73;1.93;;;27.30;70.10;;;;;;5033098;28;88616;-52
2022/08/27 08:26:29;;;;;;;2.13;1.93;;;27.30;70.10;;;;;;5036047;28;91525;-52
2022/08/27 08:28:59;;;;;;;3.33;2.07;;;27.30;70.10;;;;;;5027027;28;88065;-52
2022/08/27 08:31:27;;;;;;;2.53;2.00;;;27.30;70.10;;;;;;5031331;28;87074;-52
2022/08/27 08:33:56;;;;;;;4.40;2.50;;;27.30;70.00;;;;;;5036674;28;89186;-52
2022/08/27 08:36:25;;;;;;;3.37;2.63;;;27.30;69.80;;;;;;5025285;28;88921;-52
2022/08/27 08:38:54;;;;;;;3.13;2.30;;;27.30;69.60;;;;;;5042026;28;87032;-52
2022/08/27 08:41:31;;;;;;;3.90;2.40;;;27.30;69.80;;;;;;5024398;28;87178;-53
2022/08/27 08:44:00;;;;;;;3.73;2.30;;;27.30;69.60;;;;;;5040653;27;89135;-52
2022/08/27 08:46:36;;;;;;;2.60;2.40;;;27.30;69.80;;;;;;5041244;28;89026;-52
2022/08/27 08:49:10;;;;;;;3.30;2.50;;;27.30;69.60;;;;;;5041663;27;87136;-52
2022/08/27 08:51:40;;;;;;;3.67;3.03;;;27.30;69.60;;;;;;5040357;28;87614;-51
2022/08/27 08:54:09;;;;;;;2.70;2.13;;;27.30;69.70;;;;;;5040285;28;90035;-50
2022/08/27 08:56:40;;;;;;;4.47;2.43;;;27.30;69.60;;;;;;5034971;28;89811;-50
2022/08/27 08:59:10;;;;;;;2.97;1.90;;;27.40;69.60;;;;;;5041578;28;87084;-50
2022/08/27 09:01:38;;;;;;;4.33;2.30;;;27.30;69.60;;;;;;5040342;28;87123;-49
2022/08/27 09:04:10;;;;;;;2.97;2.10;;;27.40;69.80;;;;;;5040983;28;89275;-49
2022/08/27 09:06:40;;;;;;;3.10;1.60;;;27.30;69.50;;;;;;5037971;28;87713;-50
2022/08/27 09:09:14;;;;;;;2.43;1.70;;;27.40;69.60;;;;;;5041848;28;87071;-49
2022/08/27 09:11:44;;;;;;;4.20;1.60;;;27.40;69.40;;;;;;5040896;28;86137;-49
2022/08/27 09:14:19;;;;;;;2.13;1.60;;;27.40;69.40;;;;;;5041590;28;89231;-49
2022/08/27 09:16:50;;;;;;;3.37;1.83;;;27.40;69.30;;;;;;5021423;28;88257;-51
2022/08/27 09:19:26;;;;;;;1.73;1.40;;;27.40;69.60;;;;;;5040492;28;88018;-50
2022/08/27 09:21:56;;;;;;;2.97;1.43;;;27.40;69.60;;;;;;5040654;28;87061;-49
2022/08/27 09:24:28;;;;;;;1.47;1.33;;;27.40;69.40;;;;;;5041810;27;89034;-49
2022/08/27 09:26:56;;;;;;;1.57;1.40;;;27.40;69.40;;;;;;5034929;28;88720;-49
2022/08/27 09:29:26;;;;;;;2.70;1.77;;;27.40;69.60;;;;;;5040332;28;87024;-50
2022/08/27 09:31:56;;;;;;;1.73;1.53;;;27.40;69.40;;;;;;5040187;27;86950;-49
2022/08/27 09:34:27;;;;;;;1.27;1.07;;;27.50;69.20;;;;;;5040317;28;89301;-50
2022/08/27 09:37:00;;;;;;;1.90;1.43;;;27.40;69.20;;;;;;5033704;28;89025;-51
2022/08/27 09:39:30;;;;;;;1.67;1.03;;;27.40;69.00;;;;;;5040118;28;87268;-50
2022/08/27 09:41:58;;;;;;;1.30;1.20;;;27.40;69.00;;;;;;5039012;28;87573;-49
2022/08/27 09:44:26;;;;;;;1.67;1.43;;;27.40;69.00;;;;;;5038673;28;90007;-49
2022/08/27 09:46:55;;;;;;;2.13;0.93;;;27.40;69.00;;;;;;5039423;28;89856;-50
2022/08/27 09:49:25;;;;;;;1.60;1.10;;;27.40;68.70;;;;;;5039283;28;87160;-50
2022/08/27 09:51:53;;;;;;;5.50;1.70;;;27.40;68.80;;;;;;5040553;28;87146;-50
2022/08/27 09:54:32;;;;;;;2.87;1.30;;;27.50;68.80;;;;;;5039761;27;89226;-50
2022/08/27 09:57:00;;;;;;;2.07;1.10;;;27.40;68.50;;;;;;5040258;27;88855;-50
2022/08/27 09:59:31;;;;;;;1.50;1.10;;;27.50;68.80;;;;;;5040380;28;87036;-49
2022/08/27 10:02:04;;;;;;;1.23;0.97;;;27.50;68.40;;;;;;5040171;28;86254;-50
2022/08/27 10:04:41;;;;;;;3.43;1.77;;;27.40;68.10;;;;;;5039322;28;89166;-49
2022/08/27 10:07:42;;;;;;;6.53;1.93;;;27.50;68.20;;;;;;5039664;27;88805;-49
2022/08/27 10:10:17;;;;;;;1.23;1.13;;;27.50;68.00;;;;;;5040248;28;88033;-49
2022/08/27 10:12:51;;;;;;;1.37;1.10;;;27.50;68.00;;;;;;5040420;28;87068;-49
2022/08/27 10:15:19;;;;;;;2.17;1.10;;;27.50;68.20;;;;;;5031511;28;89237;-50
2022/08/27 10:17:54;;;;;;;1.77;1.10;;;27.50;68.00;;;;;;5040082;28;89302;-49
2022/08/27 10:20:27;;;;;;;3.17;0.90;;;27.50;67.50;;;;;;5038200;28;87360;-49
2022/08/27 10:23:04;;;;;;;3.37;0.70;;;27.50;67.50;;;;;;5038461;28;87021;-50
2022/08/27 10:25:36;;;;;;;1.23;0.87;;;27.40;67.30;;;;;;5034017;28;89159;-50
2022/08/27 10:28:10;;;;;;;2.30;1.13;;;27.50;67.50;;;;;;5040089;28;88922;-50
2022/08/27 10:30:46;;;;;;;1.47;0.87;;;27.50;67.20;;;;;;5040757;28;86918;-50
2022/08/27 10:33:18;;;;;;;1.53;0.77;;;27.50;67.10;;;;;;5039937;28;87053;-50
2022/08/27 10:35:58;;;;;;;1.73;0.73;;;27.50;67.10;;;;;;5038522;28;90081;-50
2022/08/27 10:38:37;;;;;;;0.70;0.70;;;27.50;66.90;;;;;;5039880;28;89797;-50
2022/08/27 10:41:15;;;;;;;0.83;0.60;;;27.50;67.00;;;;;;5039776;28;87024;-50
2022/08/27 10:44:11;;;;;;;0.70;0.70;;;27.50;66.90;;;;;;5040400;28;86906;-50
2022/08/27 10:46:49;;;;;;;2.80;1.07;;;27.50;66.60;;;;;;5037610;28;89156;-49
2022/08/27 10:49:23;;;;;;;0.80;0.70;;;27.50;66.60;;;;;;5039663;28;88946;-50
2022/08/27 10:51:57;;;;;;;1.43;0.63;;;27.50;66.60;;;;;;5039070;28;87028;-50
2022/08/27 10:54:27;;;;;;;2.30;1.27;;;27.50;66.30;;;;;;5041227;28;86178;-49
2022/08/27 10:56:57;;;;;;;2.53;1.10;;;27.50;66.50;;;;;;5039755;28;89029;-51
2022/08/27 10:59:47;;;;;;;1.27;0.70;;;27.50;66.30;;;;;;5038934;28;91374;-49
2022/08/27 11:02:18;;;;;;;2.33;0.60;;;27.50;66.30;;;;;;5038145;28;87977;-50
2022/08/27 11:04:48;;;;;;;1.13;0.70;;;27.50;66.40;;;;;;5038563;28;87010;-50
2022/08/27 11:07:20;;;;;;;4.03;0.87;;;27.50;66.40;;;;;;5037946;28;87873;-50
2022/08/27 11:09:50;;;;;;;2.63;0.70;;;27.50;66.40;;;;;;5041759;28;88975;-50
2022/08/27 11:12:26;;;;;;;0.90;0.60;;;27.50;66.10;;;;;;5040835;28;86960;-50
2022/08/27 11:14:56;;;;;;;0.97;0.40;;;27.50;66.10;;;;;;5043861;28;87027;-52
2022/08/27 11:17:27;;;;;;;2.20;0.70;;;27.50;66.00;;;;;;5043678;28;89250;-51
2022/08/27 11:20:01;;;;;;;0.57;0.57;;;27.60;66.20;;;;;;5043975;28;88897;-49
2022/08/27 11:22:34;;;;;;;2.30;0.67;;;27.50;65.90;;;;;;5043474;28;86885;-50
2022/08/27 11:25:07;;;;;;;1.00;0.63;;;27.50;66.10;;;;;;5034839;28;87256;-51
2022/08/27 11:27:35;;;;;;;3.43;0.83;;;27.50;66.10;;;;;;5043112;28;92714;-50
2022/08/27 11:30:06;;;;;;;0.40;0.40;;;27.50;66.20;;;;;;5043540;28;89833;-51
2022/08/27 11:32:39;;;;;;;1.40;0.90;;;27.50;66.20;;;;;;5043843;28;87096;-49
2022/08/27 11:35:12;;;;;;;2.93;0.70;;;27.50;66.10;;;;;;5044042;27;87302;-50
2022/08/27 11:37:48;;;;;;;3.30;1.10;;;27.50;66.20;;;;;;5042791;28;89111;-50
2022/08/27 11:40:29;;;;;;;2.33;1.00;;;27.50;66.20;;;;;;5042700;28;87750;-50
2022/08/27 11:42:58;;;;;;;1.67;0.60;;;27.60;66.50;;;;;;5036260;28;87099;-50
2022/08/27 11:45:29;;;;;;;1.03;0.83;;;27.60;66.80;;;;;;5043587;28;86449;-50
2022/08/27 11:47:58;;;;;;;3.33;0.60;;;27.60;66.50;;;;;;5042596;28;89214;-51
2022/08/27 11:50:26;;;;;;;0.77;0.70;;;27.60;66.50;;;;;;5042563;28;88936;-51
2022/08/27 11:52:59;;;;;;;0.83;0.60;;;27.60;66.50;;;;;;5028914;28;89052;-50
2022/08/27 11:55:30;;;;;;;4.73;1.57;;;27.60;66.70;;;;;;5034119;28;87056;-50
2022/08/27 11:58:09;;;;;;;0.87;0.70;;;27.60;66.60;;;;;;5043139;28;89113;-49
2022/08/27 12:00:39;;;;;;;2.20;0.83;;;27.60;66.50;;;;;;5041926;28;88900;-49
2022/08/27 12:03:10;;;;;;;1.90;0.40;;;27.60;66.70;;;;;;5042543;28;86951;-49
2022/08/27 12:05:41;;;;;;;3.73;1.00;;;27.60;66.50;;;;;;5042168;28;87575;-50
2022/08/27 12:08:16;;;;;;;2.60;0.60;;;27.60;66.50;;;;;;5041632;28;89164;-51
2022/08/27 12:10:55;;;;;;;0.70;0.47;;;27.50;66.50;;;;;;5041788;28;88868;-50
2022/08/27 12:13:27;;;;;;;3.50;0.97;;;27.60;66.70;;;;;;5040866;28;87138;-49
2022/08/27 12:16:11;;;;;;;6.70;0.80;;;27.60;66.70;;;;;;5041821;28;87037;-49
2022/08/27 12:19:00;;;;;;;0.70;0.60;;;27.60;66.60;;;;;;5041474;27;88634;-49
2022/08/27 12:21:42;;;;;;;4.27;0.50;;;27.60;66.50;;;;;;5020722;28;89763;-50
2022/08/27 12:24:29;;;;;;;1.70;0.73;;;27.60;66.50;;;;;;5035778;28;86930;-49
2022/08/27 12:26:58;;;;;;;1.27;0.80;;;27.60;66.50;;;;;;5043111;28;86994;-50
2022/08/27 12:29:38;;;;;;;0.87;0.60;;;27.50;66.40;;;;;;5043172;28;89203;-50
2022/08/27 12:32:26;;;;;;;2.50;0.83;;;27.60;66.30;;;;;;5041434;28;89061;-50
2022/08/27 12:35:04;;;;;;;0.57;0.57;;;27.60;66.30;;;;;;5039744;28;87162;-49
2022/08/27 12:37:35;;;;;;;1.40;0.73;;;27.60;66.00;;;;;;5039506;28;86258;-49
2022/08/27 12:40:11;;;;;;;0.70;0.60;;;27.60;66.10;;;;;;5041479;28;89153;-51
2022/08/27 12:42:39;;;;;;;2.87;0.77;;;27.60;66.00;;;;;;5046763;27;89089;-49
2022/08/27 12:45:08;;;;;;;1.10;0.70;;;27.60;66.20;;;;;;5049807;27;87975;-49
2022/08/27 12:47:40;;;;;;;0.40;0.40;;;27.60;65.80;;;;;;5051517;27;86936;-51
2022/08/27 12:50:21;;;;;;;2.10;0.63;;;27.60;65.80;;;;;;5048435;27;89364;-51
2022/08/27 12:53:25;;;;;;;0.50;0.40;;;27.60;65.70;;;;;;5050320;27;87653;-51
2022/08/27 12:56:11;;;;;;;1.13;0.60;;;27.60;65.70;;;;;;5017688;28;87073;-50
2022/08/27 12:58:44;;;;;;;0.47;0.47;;;27.60;65.80;;;;;;5049026;27;87113;-50
2022/08/27 13:01:20;;;;;;;0.70;0.60;;;27.60;65.70;;;;;;5049487;27;89001;-51
2022/08/27 13:03:49;;;;;;;0.50;0.47;;;27.60;65.70;;;;;;5050101;27;89069;-50
2022/08/27 13:06:18;;;;;;;0.80;0.70;;;27.60;65.90;;;;;;5051236;27;88232;-51
2022/08/27 13:08:52;;;;;;;0.50;0.50;;;27.60;65.60;;;;;;5040419;28;87703;-52
2022/08/27 13:11:23;;;;;;;2.23;0.77;;;27.60;65.60;;;;;;5039000;28;89001;-51
2022/08/27 13:13:52;;;;;;;0.67;0.60;;;27.60;65.60;;;;;;5040174;28;89871;-50
2022/08/27 13:16:20;;;;;;;1.73;0.87;;;27.60;65.90;;;;;;5040310;28;87148;-50